sensor_id;sensor_type;location;lat;lon;timestamp;P1;durP1;ratioP1;P2;durP2;ratioP2
44143;SDS011;43510;51.920;4.492;2022-08-21T00:02:14;10.30;;;2.10;;
44143;SDS011;43510;51.920;4.492;2022-08-21T00:04:49;6.90;;;1.60;;
44143;SDS011;43510;51.920;4.492;2022-08-21T00:07:16;11.18;;;1.70;;
44143;SDS011;43510;51.920;4.492;2022-08-21T00:09:43;7.85;;;1.67;;
44143;SDS011;43510;51.920;4.492;2022-08-21T00:12:08;9.05;;;1.90;;
44143;SDS011;43510;51.920;4.492;2022-08-21T00:14:34;9.25;;;1.52;;
44143;SDS011;43510;51.920;4.492;2022-08-21T00:17:01;6.65;;;1.40;;
44143;SDS011;43510;51.920;4.492;2022-08-21T00:19:27;4.40;;;1.40;;
44143;SDS011;43510;51.920;4.492;2022-08-21T00:21:53;7.70;;;1.92;;
44143;SDS011;43510;51.920;4.492;2022-08-21T00:24:20;8.73;;;1.70;;
44143;SDS011;43510;51.920;4.492;2022-08-21T00:26:46;9.27;;;2.10;;
44143;SDS011;43510;51.920;4.492;2022-08-21T00:29:12;12.70;;;2.30;;
44143;SDS011;43510;51.920;4.492;2022-08-21T00:31:38;5.40;;;1.33;;
44143;SDS011;43510;51.920;4.492;2022-08-21T00:34:06;7.60;;;2.03;;
44143;SDS011;43510;51.920;4.492;2022-08-21T00:36:32;10.65;;;1.77;;
44143;SDS011;43510;51.920;4.492;2022-08-21T00:38:58;12.70;;;2.17;;
44143;SDS011;43510;51.920;4.492;2022-08-21T00:41:23;7.30;;;1.58;;
44143;SDS011;43510;51.920;4.492;2022-08-21T00:43:49;9.07;;;2.38;;
44143;SDS011;43510;51.920;4.492;2022-08-21T00:46:15;6.68;;;2.30;;
44143;SDS011;43510;51.920;4.492;2022-08-21T00:48:40;7.13;;;1.50;;
44143;SDS011;43510;51.920;4.492;2022-08-21T00:51:07;7.20;;;1.65;;
44143;SDS011;43510;51.920;4.492;2022-08-21T00:53:39;7.55;;;1.30;;
44143;SDS011;43510;51.920;4.492;2022-08-21T00:56:07;5.95;;;1.30;;
44143;SDS011;43510;51.920;4.492;2022-08-21T00:58:35;9.05;;;2.63;;
44143;SDS011;43510;51.920;4.492;2022-08-21T01:01:04;11.02;;;1.80;;
44143;SDS011;43510;51.920;4.492;2022-08-21T01:03:30;4.85;;;1.20;;
44143;SDS011;43510;51.920;4.492;2022-08-21T01:05:55;7.75;;;1.70;;
44143;SDS011;43510;51.920;4.492;2022-08-21T01:08:21;9.60;;;1.42;;
44143;SDS011;43510;51.920;4.492;2022-08-21T01:10:47;9.05;;;1.80;;
44143;SDS011;43510;51.920;4.492;2022-08-21T01:13:13;6.70;;;1.20;;
44143;SDS011;43510;51.920;4.492;2022-08-21T01:15:43;7.47;;;1.58;;
44143;SDS011;43510;51.920;4.492;2022-08-21T01:18:11;7.80;;;1.40;;
44143;SDS011;43510;51.920;4.492;2022-08-21T01:20:38;8.98;;;1.83;;
44143;SDS011;43510;51.920;4.492;2022-08-21T01:23:06;8.88;;;1.95;;
44143;SDS011;43510;51.920;4.492;2022-08-21T01:25:32;9.05;;;1.50;;
44143;SDS011;43510;51.920;4.492;2022-08-21T01:28:01;6.53;;;1.42;;
44143;SDS011;43510;51.920;4.492;2022-08-21T01:30:29;8.68;;;1.73;;
44143;SDS011;43510;51.920;4.492;2022-08-21T01:32:59;8.48;;;1.38;;
44143;SDS011;43510;51.920;4.492;2022-08-21T01:35:25;7.30;;;1.63;;
44143;SDS011;43510;51.920;4.492;2022-08-21T01:37:51;9.32;;;1.70;;
44143;SDS011;43510;51.920;4.492;2022-08-21T01:40:17;11.77;;;2.00;;
44143;SDS011;43510;51.920;4.492;2022-08-21T01:42:44;8.15;;;1.27;;
44143;SDS011;43510;51.920;4.492;2022-08-21T01:45:11;10.60;;;1.45;;
44143;SDS011;43510;51.920;4.492;2022-08-21T01:47:37;7.20;;;1.48;;
44143;SDS011;43510;51.920;4.492;2022-08-21T01:50:04;5.97;;;1.35;;
44143;SDS011;43510;51.920;4.492;2022-08-21T01:52:31;5.75;;;1.67;;
44143;SDS011;43510;51.920;4.492;2022-08-21T01:54:57;9.40;;;1.83;;
44143;SDS011;43510;51.920;4.492;2022-08-21T01:57:22;10.10;;;2.38;;
44143;SDS011;43510;51.920;4.492;2022-08-21T01:59:49;8.68;;;1.33;;
44143;SDS011;43510;51.920;4.492;2022-08-21T02:02:14;8.05;;;1.95;;
44143;SDS011;43510;51.920;4.492;2022-08-21T02:04:39;4.43;;;1.38;;
44143;SDS011;43510;51.920;4.492;2022-08-21T02:07:05;4.90;;;1.52;;
44143;SDS011;43510;51.920;4.492;2022-08-21T02:09:31;11.10;;;2.05;;
44143;SDS011;43510;51.920;4.492;2022-08-21T02:11:56;9.00;;;1.42;;
44143;SDS011;43510;51.920;4.492;2022-08-21T02:14:22;6.93;;;1.63;;
44143;SDS011;43510;51.920;4.492;2022-08-21T02:16:48;9.93;;;1.77;;
44143;SDS011;43510;51.920;4.492;2022-08-21T02:19:14;7.47;;;1.63;;
44143;SDS011;43510;51.920;4.492;2022-08-21T02:21:40;5.60;;;1.75;;
44143;SDS011;43510;51.920;4.492;2022-08-21T02:24:06;9.90;;;1.88;;
44143;SDS011;43510;51.920;4.492;2022-08-21T02:26:32;6.03;;;1.70;;
44143;SDS011;43510;51.920;4.492;2022-08-21T02:28:58;6.43;;;1.35;;
44143;SDS011;43510;51.920;4.492;2022-08-21T02:31:24;7.93;;;1.55;;
44143;SDS011;43510;51.920;4.492;2022-08-21T02:33:49;9.15;;;1.70;;
44143;SDS011;43510;51.920;4.492;2022-08-21T02:36:15;6.82;;;2.13;;
44143;SDS011;43510;51.920;4.492;2022-08-21T02:38:40;8.60;;;1.83;;
44143;SDS011;43510;51.920;4.492;2022-08-21T02:41:09;4.88;;;1.30;;
44143;SDS011;43510;51.920;4.492;2022-08-21T02:43:41;7.18;;;1.50;;
44143;SDS011;43510;51.920;4.492;2022-08-21T02:46:08;6.70;;;1.40;;
44143;SDS011;43510;51.920;4.492;2022-08-21T02:48:34;12.93;;;1.63;;
44143;SDS011;43510;51.920;4.492;2022-08-21T02:51:05;9.38;;;1.58;;
44143;SDS011;43510;51.920;4.492;2022-08-21T02:53:32;7.85;;;1.50;;
44143;SDS011;43510;51.920;4.492;2022-08-21T02:56:00;7.57;;;1.40;;
44143;SDS011;43510;51.920;4.492;2022-08-21T02:58:30;9.57;;;2.38;;
44143;SDS011;43510;51.920;4.492;2022-08-21T03:00:58;7.72;;;2.05;;
44143;SDS011;43510;51.920;4.492;2022-08-21T03:03:25;5.97;;;1.65;;
44143;SDS011;43510;51.920;4.492;2022-08-21T03:05:52;10.23;;;1.75;;
44143;SDS011;43510;51.920;4.492;2022-08-21T03:08:19;12.52;;;2.00;;
44143;SDS011;43510;51.920;4.492;2022-08-21T03:10:49;5.85;;;2.28;;
44143;SDS011;43510;51.920;4.492;2022-08-21T03:13:16;12.65;;;2.10;;
44143;SDS011;43510;51.920;4.492;2022-08-21T03:15:42;9.57;;;1.48;;
44143;SDS011;43510;51.920;4.492;2022-08-21T03:18:09;10.18;;;1.65;;
44143;SDS011;43510;51.920;4.492;2022-08-21T03:20:36;9.52;;;1.75;;
44143;SDS011;43510;51.920;4.492;2022-08-21T03:23:03;8.43;;;1.90;;
44143;SDS011;43510;51.920;4.492;2022-08-21T03:25:29;13.57;;;2.15;;
44143;SDS011;43510;51.920;4.492;2022-08-21T03:28:02;7.85;;;1.48;;
44143;SDS011;43510;51.920;4.492;2022-08-21T03:30:31;5.50;;;1.58;;
44143;SDS011;43510;51.920;4.492;2022-08-21T03:32:57;7.53;;;1.63;;
44143;SDS011;43510;51.920;4.492;2022-08-21T03:35:24;11.25;;;2.22;;
44143;SDS011;43510;51.920;4.492;2022-08-21T03:37:49;8.05;;;1.85;;
44143;SDS011;43510;51.920;4.492;2022-08-21T03:40:16;10.38;;;1.70;;
44143;SDS011;43510;51.920;4.492;2022-08-21T03:42:43;13.02;;;2.22;;
44143;SDS011;43510;51.920;4.492;2022-08-21T03:45:10;6.32;;;1.80;;
44143;SDS011;43510;51.920;4.492;2022-08-21T03:47:35;8.38;;;2.50;;
44143;SDS011;43510;51.920;4.492;2022-08-21T03:50:03;11.80;;;2.30;;
44143;SDS011;43510;51.920;4.492;2022-08-21T03:52:29;8.48;;;1.92;;
44143;SDS011;43510;51.920;4.492;2022-08-21T03:54:55;9.63;;;1.75;;
44143;SDS011;43510;51.920;4.492;2022-08-21T03:57:20;13.30;;;2.90;;
44143;SDS011;43510;51.920;4.492;2022-08-21T03:59:47;12.73;;;1.83;;
44143;SDS011;43510;51.920;4.492;2022-08-21T04:02:12;7.88;;;2.20;;
44143;SDS011;43510;51.920;4.492;2022-08-21T04:04:45;8.00;;;1.75;;
44143;SDS011;43510;51.920;4.492;2022-08-21T04:07:10;9.95;;;2.10;;
44143;SDS011;43510;51.920;4.492;2022-08-21T04:09:35;9.60;;;2.45;;
44143;SDS011;43510;51.920;4.492;2022-08-21T04:12:00;13.50;;;2.40;;
44143;SDS011;43510;51.920;4.492;2022-08-21T04:14:27;15.45;;;1.90;;
44143;SDS011;43510;51.920;4.492;2022-08-21T04:16:52;11.60;;;2.80;;
44143;SDS011;43510;51.920;4.492;2022-08-21T04:19:17;12.70;;;2.03;;
44143;SDS011;43510;51.920;4.492;2022-08-21T04:21:43;8.25;;;1.65;;
44143;SDS011;43510;51.920;4.492;2022-08-21T04:24:09;10.05;;;2.05;;
44143;SDS011;43510;51.920;4.492;2022-08-21T04:26:35;11.00;;;2.63;;
44143;SDS011;43510;51.920;4.492;2022-08-21T04:29:02;13.95;;;2.85;;
44143;SDS011;43510;51.920;4.492;2022-08-21T04:31:31;11.80;;;2.50;;
44143;SDS011;43510;51.920;4.492;2022-08-21T04:33:58;6.38;;;2.17;;
44143;SDS011;43510;51.920;4.492;2022-08-21T04:36:30;15.32;;;2.58;;
44143;SDS011;43510;51.920;4.492;2022-08-21T04:38:56;9.02;;;2.33;;
44143;SDS011;43510;51.920;4.492;2022-08-21T04:41:21;9.70;;;2.63;;
44143;SDS011;43510;51.920;4.492;2022-08-21T04:43:46;13.05;;;2.70;;
44143;SDS011;43510;51.920;4.492;2022-08-21T04:46:12;12.15;;;3.50;;
44143;SDS011;43510;51.920;4.492;2022-08-21T04:51:07;16.25;;;3.03;;
44143;SDS011;43510;51.920;4.492;2022-08-21T04:53:40;13.10;;;2.67;;
44143;SDS011;43510;51.920;4.492;2022-08-21T04:56:11;10.60;;;2.25;;
44143;SDS011;43510;51.920;4.492;2022-08-21T04:58:40;15.43;;;3.33;;
44143;SDS011;43510;51.920;4.492;2022-08-21T05:01:09;10.35;;;2.95;;
44143;SDS011;43510;51.920;4.492;2022-08-21T05:03:38;15.90;;;3.10;;
44143;SDS011;43510;51.920;4.492;2022-08-21T05:06:06;11.32;;;2.13;;
44143;SDS011;43510;51.920;4.492;2022-08-21T05:08:34;10.20;;;2.67;;
44143;SDS011;43510;51.920;4.492;2022-08-21T05:11:02;10.98;;;2.63;;
44143;SDS011;43510;51.920;4.492;2022-08-21T05:13:27;10.88;;;3.42;;
44143;SDS011;43510;51.920;4.492;2022-08-21T05:15:53;11.65;;;2.80;;
44143;SDS011;43510;51.920;4.492;2022-08-21T05:18:19;12.43;;;2.85;;
44143;SDS011;43510;51.920;4.492;2022-08-21T05:20:45;11.80;;;3.55;;
44143;SDS011;43510;51.920;4.492;2022-08-21T05:23:11;15.00;;;3.00;;
44143;SDS011;43510;51.920;4.492;2022-08-21T05:25:37;14.13;;;3.17;;
44143;SDS011;43510;51.920;4.492;2022-08-21T05:28:03;9.18;;;3.10;;
44143;SDS011;43510;51.920;4.492;2022-08-21T05:30:29;11.02;;;2.50;;
44143;SDS011;43510;51.920;4.492;2022-08-21T05:32:57;15.30;;;3.40;;
44143;SDS011;43510;51.920;4.492;2022-08-21T05:35:23;11.07;;;2.70;;
44143;SDS011;43510;51.920;4.492;2022-08-21T05:37:50;7.03;;;2.20;;
44143;SDS011;43510;51.920;4.492;2022-08-21T05:40:15;10.63;;;2.85;;
44143;SDS011;43510;51.920;4.492;2022-08-21T05:42:41;10.45;;;2.20;;
44143;SDS011;43510;51.920;4.492;2022-08-21T05:45:06;17.40;;;3.22;;
44143;SDS011;43510;51.920;4.492;2022-08-21T05:47:31;11.60;;;2.67;;
44143;SDS011;43510;51.920;4.492;2022-08-21T05:49:58;12.25;;;2.38;;
44143;SDS011;43510;51.920;4.492;2022-08-21T05:52:23;11.77;;;2.38;;
44143;SDS011;43510;51.920;4.492;2022-08-21T05:54:49;18.58;;;3.25;;
44143;SDS011;43510;51.920;4.492;2022-08-21T05:57:14;11.68;;;2.90;;
44143;SDS011;43510;51.920;4.492;2022-08-21T05:59:39;10.75;;;2.53;;
44143;SDS011;43510;51.920;4.492;2022-08-21T06:02:05;14.98;;;3.22;;
44143;SDS011;43510;51.920;4.492;2022-08-21T06:04:36;7.72;;;2.50;;
44143;SDS011;43510;51.920;4.492;2022-08-21T06:07:02;12.02;;;2.78;;
44143;SDS011;43510;51.920;4.492;2022-08-21T06:09:29;16.10;;;2.90;;
44143;SDS011;43510;51.920;4.492;2022-08-21T06:11:54;10.55;;;2.85;;
44143;SDS011;43510;51.920;4.492;2022-08-21T06:14:20;12.80;;;2.42;;
44143;SDS011;43510;51.920;4.492;2022-08-21T06:16:45;13.50;;;3.13;;
44143;SDS011;43510;51.920;4.492;2022-08-21T06:19:11;10.75;;;2.92;;
44143;SDS011;43510;51.920;4.492;2022-08-21T06:21:37;12.07;;;2.83;;
44143;SDS011;43510;51.920;4.492;2022-08-21T06:24:02;8.15;;;2.30;;
44143;SDS011;43510;51.920;4.492;2022-08-21T06:26:29;10.13;;;2.72;;
44143;SDS011;43510;51.920;4.492;2022-08-21T06:28:55;12.13;;;2.35;;
44143;SDS011;43510;51.920;4.492;2022-08-21T06:31:23;8.57;;;2.55;;
44143;SDS011;43510;51.920;4.492;2022-08-21T06:33:50;9.10;;;2.40;;
44143;SDS011;43510;51.920;4.492;2022-08-21T06:36:16;12.18;;;3.28;;
44143;SDS011;43510;51.920;4.492;2022-08-21T06:38:42;9.43;;;2.78;;
44143;SDS011;43510;51.920;4.492;2022-08-21T06:41:08;9.77;;;2.38;;
44143;SDS011;43510;51.920;4.492;2022-08-21T06:43:34;8.63;;;2.60;;
44143;SDS011;43510;51.920;4.492;2022-08-21T06:45:59;11.68;;;2.28;;
44143;SDS011;43510;51.920;4.492;2022-08-21T06:48:25;7.20;;;2.10;;
44143;SDS011;43510;51.920;4.492;2022-08-21T06:50:50;8.77;;;2.15;;
44143;SDS011;43510;51.920;4.492;2022-08-21T06:53:19;9.32;;;2.28;;
44143;SDS011;43510;51.920;4.492;2022-08-21T06:55:46;13.57;;;2.30;;
44143;SDS011;43510;51.920;4.492;2022-08-21T06:58:12;7.57;;;2.15;;
44143;SDS011;43510;51.920;4.492;2022-08-21T07:00:39;8.70;;;3.03;;
44143;SDS011;43510;51.920;4.492;2022-08-21T07:03:06;7.18;;;1.98;;
44143;SDS011;43510;51.920;4.492;2022-08-21T07:05:31;17.55;;;6.32;;
44143;SDS011;43510;51.920;4.492;2022-08-21T07:07:57;9.55;;;3.13;;
44143;SDS011;43510;51.920;4.492;2022-08-21T07:10:23;12.05;;;2.72;;
44143;SDS011;43510;51.920;4.492;2022-08-21T07:12:49;9.60;;;2.70;;
44143;SDS011;43510;51.920;4.492;2022-08-21T07:15:18;13.35;;;2.70;;
44143;SDS011;43510;51.920;4.492;2022-08-21T07:17:46;14.05;;;3.60;;
44143;SDS011;43510;51.920;4.492;2022-08-21T07:20:15;14.70;;;2.88;;
44143;SDS011;43510;51.920;4.492;2022-08-21T07:22:41;8.65;;;2.28;;
44143;SDS011;43510;51.920;4.492;2022-08-21T07:25:07;11.90;;;3.08;;
44143;SDS011;43510;51.920;4.492;2022-08-21T07:27:37;10.20;;;2.65;;
44143;SDS011;43510;51.920;4.492;2022-08-21T07:30:03;12.20;;;2.38;;
44143;SDS011;43510;51.920;4.492;2022-08-21T07:32:30;8.57;;;2.22;;
44143;SDS011;43510;51.920;4.492;2022-08-21T07:34:57;10.27;;;2.20;;
44143;SDS011;43510;51.920;4.492;2022-08-21T07:37:23;10.88;;;2.83;;
44143;SDS011;43510;51.920;4.492;2022-08-21T07:39:49;15.88;;;2.90;;
44143;SDS011;43510;51.920;4.492;2022-08-21T07:42:15;8.68;;;2.47;;
44143;SDS011;43510;51.920;4.492;2022-08-21T07:44:41;12.35;;;2.10;;
44143;SDS011;43510;51.920;4.492;2022-08-21T07:47:07;9.88;;;2.20;;
44143;SDS011;43510;51.920;4.492;2022-08-21T07:49:33;7.60;;;1.77;;
44143;SDS011;43510;51.920;4.492;2022-08-21T07:51:58;8.70;;;2.45;;
44143;SDS011;43510;51.920;4.492;2022-08-21T07:54:25;10.10;;;2.45;;
44143;SDS011;43510;51.920;4.492;2022-08-21T07:56:50;10.10;;;2.17;;
44143;SDS011;43510;51.920;4.492;2022-08-21T07:59:16;12.27;;;2.08;;
44143;SDS011;43510;51.920;4.492;2022-08-21T08:01:43;9.82;;;2.75;;
44143;SDS011;43510;51.920;4.492;2022-08-21T08:04:08;13.45;;;2.35;;
44143;SDS011;43510;51.920;4.492;2022-08-21T08:06:34;9.55;;;2.42;;
44143;SDS011;43510;51.920;4.492;2022-08-21T08:08:59;9.52;;;1.92;;
44143;SDS011;43510;51.920;4.492;2022-08-21T08:11:28;13.60;;;2.28;;
44143;SDS011;43510;51.920;4.492;2022-08-21T08:13:54;10.38;;;2.10;;
44143;SDS011;43510;51.920;4.492;2022-08-21T08:16:22;14.27;;;3.33;;
44143;SDS011;43510;51.920;4.492;2022-08-21T08:18:48;13.60;;;3.05;;
44143;SDS011;43510;51.920;4.492;2022-08-21T08:21:14;11.82;;;2.90;;
44143;SDS011;43510;51.920;4.492;2022-08-21T08:23:39;8.98;;;2.00;;
44143;SDS011;43510;51.920;4.492;2022-08-21T08:26:05;9.73;;;2.25;;
44143;SDS011;43510;51.920;4.492;2022-08-21T08:28:31;8.70;;;2.00;;
44143;SDS011;43510;51.920;4.492;2022-08-21T08:30:58;12.70;;;1.90;;
44143;SDS011;43510;51.920;4.492;2022-08-21T08:33:24;8.00;;;1.75;;
44143;SDS011;43510;51.920;4.492;2022-08-21T08:35:50;10.35;;;1.50;;
44143;SDS011;43510;51.920;4.492;2022-08-21T08:38:16;12.00;;;1.98;;
44143;SDS011;43510;51.920;4.492;2022-08-21T08:40:51;8.45;;;1.70;;
44143;SDS011;43510;51.920;4.492;2022-08-21T08:44:23;10.48;;;2.00;;
44143;SDS011;43510;51.920;4.492;2022-08-21T08:46:46;10.65;;;1.70;;
44143;SDS011;43510;51.920;4.492;2022-08-21T08:51:50;9.43;;;1.92;;
44143;SDS011;43510;51.920;4.492;2022-08-21T08:55:03;8.68;;;1.83;;
44143;SDS011;43510;51.920;4.492;2022-08-21T08:57:14;8.07;;;1.75;;
44143;SDS011;43510;51.920;4.492;2022-08-21T08:59:46;13.32;;;1.95;;
44143;SDS011;43510;51.920;4.492;2022-08-21T09:02:15;9.50;;;1.58;;
44143;SDS011;43510;51.920;4.492;2022-08-21T09:04:42;8.35;;;1.40;;
44143;SDS011;43510;51.920;4.492;2022-08-21T09:15:51;9.32;;;1.42;;
44143;SDS011;43510;51.920;4.492;2022-08-21T09:18:43;9.07;;;1.52;;
44143;SDS011;43510;51.920;4.492;2022-08-21T09:21:18;8.63;;;1.60;;
44143;SDS011;43510;51.920;4.492;2022-08-21T09:26:27;8.85;;;1.50;;
44143;SDS011;43510;51.920;4.492;2022-08-21T09:28:58;9.38;;;1.95;;
44143;SDS011;43510;51.920;4.492;2022-08-21T09:31:29;7.63;;;1.60;;
44143;SDS011;43510;51.920;4.492;2022-08-21T09:34:01;7.60;;;1.30;;
44143;SDS011;43510;51.920;4.492;2022-08-21T09:36:45;6.45;;;1.55;;
44143;SDS011;43510;51.920;4.492;2022-08-21T09:39:13;6.80;;;1.17;;
44143;SDS011;43510;51.920;4.492;2022-08-21T09:41:49;6.35;;;1.70;;
44143;SDS011;43510;51.920;4.492;2022-08-21T09:44:24;5.63;;;1.27;;
44143;SDS011;43510;51.920;4.492;2022-08-21T09:46:52;8.68;;;1.35;;
44143;SDS011;43510;51.920;4.492;2022-08-21T09:49:40;5.13;;;1.15;;
44143;SDS011;43510;51.920;4.492;2022-08-21T09:52:27;11.52;;;2.22;;
44143;SDS011;43510;51.920;4.492;2022-08-21T09:54:52;9.10;;;1.45;;
44143;SDS011;43510;51.920;4.492;2022-08-21T09:57:24;8.57;;;1.30;;
44143;SDS011;43510;51.920;4.492;2022-08-21T10:00:09;8.10;;;1.38;;
44143;SDS011;43510;51.920;4.492;2022-08-21T10:06:00;7.07;;;1.17;;
44143;SDS011;43510;51.920;4.492;2022-08-21T10:08:31;8.40;;;1.17;;
44143;SDS011;43510;51.920;4.492;2022-08-21T10:11:05;7.63;;;1.35;;
44143;SDS011;43510;51.920;4.492;2022-08-21T10:18:42;7.88;;;1.65;;
44143;SDS011;43510;51.920;4.492;2022-08-21T10:32:14;8.33;;;1.30;;
44143;SDS011;43510;51.920;4.492;2022-08-21T10:40:52;6.45;;;1.25;;
44143;SDS011;43510;51.920;4.492;2022-08-21T10:47:18;5.00;;;1.23;;
44143;SDS011;43510;51.920;4.492;2022-08-21T10:51:54;3.92;;;1.00;;
44143;SDS011;43510;51.920;4.492;2022-08-21T10:54:39;10.57;;;1.20;;
44143;SDS011;43510;51.920;4.492;2022-08-21T10:57:17;5.38;;;0.98;;
44143;SDS011;43510;51.920;4.492;2022-08-21T11:00:04;5.70;;;1.27;;
44143;SDS011;43510;51.920;4.492;2022-08-21T11:13:17;6.53;;;1.20;;
44143;SDS011;43510;51.920;4.492;2022-08-21T11:15:52;3.45;;;0.90;;
44143;SDS011;43510;51.920;4.492;2022-08-21T11:18:31;5.45;;;1.20;;
44143;SDS011;43510;51.920;4.492;2022-08-21T11:21:03;7.70;;;1.33;;
44143;SDS011;43510;51.920;4.492;2022-08-21T11:23:39;7.20;;;1.45;;
44143;SDS011;43510;51.920;4.492;2022-08-21T11:26:15;3.70;;;0.85;;
44143;SDS011;43510;51.920;4.492;2022-08-21T11:28:58;7.18;;;1.08;;
44143;SDS011;43510;51.920;4.492;2022-08-21T11:34:15;4.03;;;0.90;;
44143;SDS011;43510;51.920;4.492;2022-08-21T11:42:31;7.78;;;1.50;;
44143;SDS011;43510;51.920;4.492;2022-08-21T11:50:15;4.50;;;0.87;;
44143;SDS011;43510;51.920;4.492;2022-08-21T11:58:09;9.30;;;1.10;;
44143;SDS011;43510;51.920;4.492;2022-08-21T12:00:44;2.63;;;0.90;;
44143;SDS011;43510;51.920;4.492;2022-08-21T12:05:43;7.18;;;1.38;;
44143;SDS011;43510;51.920;4.492;2022-08-21T12:08:32;5.65;;;1.38;;
44143;SDS011;43510;51.920;4.492;2022-08-21T12:11:23;7.50;;;1.00;;
44143;SDS011;43510;51.920;4.492;2022-08-21T12:16:44;3.80;;;0.98;;
44143;SDS011;43510;51.920;4.492;2022-08-21T12:19:32;6.28;;;1.20;;
44143;SDS011;43510;51.920;4.492;2022-08-21T12:22:14;5.57;;;1.15;;
44143;SDS011;43510;51.920;4.492;2022-08-21T12:24:49;5.80;;;1.20;;
44143;SDS011;43510;51.920;4.492;2022-08-21T12:30:32;5.53;;;1.80;;
44143;SDS011;43510;51.920;4.492;2022-08-21T12:33:05;4.05;;;0.80;;
44143;SDS011;43510;51.920;4.492;2022-08-21T12:44:17;5.72;;;1.30;;
44143;SDS011;43510;51.920;4.492;2022-08-21T12:50:05;8.48;;;1.17;;
44143;SDS011;43510;51.920;4.492;2022-08-21T12:52:44;3.80;;;1.15;;
44143;SDS011;43510;51.920;4.492;2022-08-21T12:55:25;6.03;;;0.98;;
44143;SDS011;43510;51.920;4.492;2022-08-21T12:57:53;6.30;;;1.10;;
44143;SDS011;43510;51.920;4.492;2022-08-21T13:00:20;8.45;;;1.35;;
44143;SDS011;43510;51.920;4.492;2022-08-21T13:02:51;4.60;;;1.02;;
44143;SDS011;43510;51.920;4.492;2022-08-21T13:05:39;8.40;;;1.05;;
44143;SDS011;43510;51.920;4.492;2022-08-21T13:08:05;6.45;;;1.10;;
44143;SDS011;43510;51.920;4.492;2022-08-21T13:10:34;10.95;;;1.92;;
44143;SDS011;43510;51.920;4.492;2022-08-21T13:13:03;5.75;;;1.45;;
44143;SDS011;43510;51.920;4.492;2022-08-21T13:15:32;8.93;;;1.33;;
44143;SDS011;43510;51.920;4.492;2022-08-21T13:17:59;8.65;;;1.70;;
44143;SDS011;43510;51.920;4.492;2022-08-21T13:20:32;5.13;;;0.93;;
44143;SDS011;43510;51.920;4.492;2022-08-21T13:23:05;7.20;;;1.67;;
44143;SDS011;43510;51.920;4.492;2022-08-21T13:25:45;7.38;;;1.88;;
44143;SDS011;43510;51.920;4.492;2022-08-21T13:28:11;11.32;;;2.55;;
44143;SDS011;43510;51.920;4.492;2022-08-21T13:30:41;4.55;;;1.25;;
44143;SDS011;43510;51.920;4.492;2022-08-21T13:33:09;5.28;;;1.45;;
44143;SDS011;43510;51.920;4.492;2022-08-21T13:38:22;4.65;;;1.10;;
44143;SDS011;43510;51.920;4.492;2022-08-21T13:41:02;6.30;;;0.98;;
44143;SDS011;43510;51.920;4.492;2022-08-21T13:43:33;6.10;;;1.42;;
44143;SDS011;43510;51.920;4.492;2022-08-21T13:46:06;7.32;;;2.20;;
44143;SDS011;43510;51.920;4.492;2022-08-21T13:48:36;9.98;;;1.88;;
44143;SDS011;43510;51.920;4.492;2022-08-21T13:51:03;5.35;;;1.42;;
44143;SDS011;43510;51.920;4.492;2022-08-21T13:55:57;5.63;;;1.40;;
44143;SDS011;43510;51.920;4.492;2022-08-21T13:58:33;5.15;;;1.35;;
44143;SDS011;43510;51.920;4.492;2022-08-21T14:01:15;6.28;;;0.98;;
44143;SDS011;43510;51.920;4.492;2022-08-21T14:03:47;3.08;;;0.98;;
44143;SDS011;43510;51.920;4.492;2022-08-21T14:06:17;6.80;;;1.23;;
44143;SDS011;43510;51.920;4.492;2022-08-21T14:09:07;6.95;;;1.90;;
44143;SDS011;43510;51.920;4.492;2022-08-21T14:11:36;5.87;;;1.20;;
44143;SDS011;43510;51.920;4.492;2022-08-21T14:14:25;7.85;;;1.83;;
44143;SDS011;43510;51.920;4.492;2022-08-21T14:16:59;7.07;;;2.20;;
44143;SDS011;43510;51.920;4.492;2022-08-21T14:19:27;5.90;;;1.33;;
44143;SDS011;43510;51.920;4.492;2022-08-21T14:22:27;6.68;;;1.50;;
44143;SDS011;43510;51.920;4.492;2022-08-21T14:24:59;7.55;;;2.60;;
44143;SDS011;43510;51.920;4.492;2022-08-21T14:27:31;5.78;;;1.50;;
44143;SDS011;43510;51.920;4.492;2022-08-21T14:30:09;6.35;;;1.40;;
44143;SDS011;43510;51.920;4.492;2022-08-21T14:32:46;7.72;;;1.85;;
44143;SDS011;43510;51.920;4.492;2022-08-21T14:35:12;6.38;;;1.50;;
44143;SDS011;43510;51.920;4.492;2022-08-21T14:37:43;5.65;;;1.20;;
44143;SDS011;43510;51.920;4.492;2022-08-21T14:40:11;6.13;;;1.60;;
44143;SDS011;43510;51.920;4.492;2022-08-21T14:42:37;6.60;;;1.98;;
44143;SDS011;43510;51.920;4.492;2022-08-21T14:45:10;5.53;;;1.20;;
44143;SDS011;43510;51.920;4.492;2022-08-21T14:47:39;8.75;;;1.50;;
44143;SDS011;43510;51.920;4.492;2022-08-21T14:50:05;7.40;;;1.65;;
44143;SDS011;43510;51.920;4.492;2022-08-21T14:52:30;4.05;;;1.23;;
44143;SDS011;43510;51.920;4.492;2022-08-21T14:54:58;8.07;;;1.88;;
44143;SDS011;43510;51.920;4.492;2022-08-21T14:57:23;3.47;;;0.95;;
44143;SDS011;43510;51.920;4.492;2022-08-21T14:59:55;9.63;;;1.80;;
44143;SDS011;43510;51.920;4.492;2022-08-21T15:02:22;10.45;;;1.38;;
44143;SDS011;43510;51.920;4.492;2022-08-21T15:04:48;5.88;;;1.25;;
44143;SDS011;43510;51.920;4.492;2022-08-21T15:07:13;4.93;;;1.30;;
44143;SDS011;43510;51.920;4.492;2022-08-21T15:09:39;4.72;;;1.23;;
44143;SDS011;43510;51.920;4.492;2022-08-21T15:12:04;6.13;;;1.23;;
44143;SDS011;43510;51.920;4.492;2022-08-21T15:14:33;4.13;;;1.10;;
44143;SDS011;43510;51.920;4.492;2022-08-21T15:17:00;8.98;;;3.03;;
44143;SDS011;43510;51.920;4.492;2022-08-21T15:19:28;7.10;;;1.50;;
44143;SDS011;43510;51.920;4.492;2022-08-21T15:21:54;8.00;;;1.77;;
44143;SDS011;43510;51.920;4.492;2022-08-21T15:24:20;5.82;;;1.90;;
44143;SDS011;43510;51.920;4.492;2022-08-21T15:26:46;7.03;;;1.60;;
44143;SDS011;43510;51.920;4.492;2022-08-21T15:29:12;5.50;;;1.45;;
44143;SDS011;43510;51.920;4.492;2022-08-21T15:31:55;8.82;;;1.83;;
44143;SDS011;43510;51.920;4.492;2022-08-21T15:34:22;7.32;;;1.50;;
44143;SDS011;43510;51.920;4.492;2022-08-21T15:36:49;9.77;;;1.48;;
44143;SDS011;43510;51.920;4.492;2022-08-21T15:39:14;5.53;;;1.50;;
44143;SDS011;43510;51.920;4.492;2022-08-21T15:41:40;5.50;;;1.33;;
44143;SDS011;43510;51.920;4.492;2022-08-21T15:44:06;8.07;;;1.80;;
44143;SDS011;43510;51.920;4.492;2022-08-21T15:46:36;9.07;;;1.77;;
44143;SDS011;43510;51.920;4.492;2022-08-21T15:49:02;5.32;;;1.35;;
44143;SDS011;43510;51.920;4.492;2022-08-21T15:51:27;8.48;;;1.85;;
44143;SDS011;43510;51.920;4.492;2022-08-21T15:53:53;5.47;;;1.40;;
44143;SDS011;43510;51.920;4.492;2022-08-21T15:56:25;3.88;;;1.08;;
44143;SDS011;43510;51.920;4.492;2022-08-21T15:59:04;10.82;;;1.92;;
44143;SDS011;43510;51.920;4.492;2022-08-21T16:01:33;7.63;;;1.83;;
44143;SDS011;43510;51.920;4.492;2022-08-21T16:04:00;6.68;;;1.45;;
44143;SDS011;43510;51.920;4.492;2022-08-21T16:06:27;6.45;;;1.75;;
44143;SDS011;43510;51.920;4.492;2022-08-21T16:08:53;7.22;;;1.40;;
44143;SDS011;43510;51.920;4.492;2022-08-21T16:11:19;7.20;;;1.45;;
44143;SDS011;43510;51.920;4.492;2022-08-21T16:13:44;7.43;;;1.75;;
44143;SDS011;43510;51.920;4.492;2022-08-21T16:16:12;7.45;;;1.70;;
44143;SDS011;43510;51.920;4.492;2022-08-21T16:18:41;7.72;;;1.48;;
44143;SDS011;43510;51.920;4.492;2022-08-21T16:21:08;8.80;;;1.48;;
44143;SDS011;43510;51.920;4.492;2022-08-21T16:23:34;6.03;;;1.13;;
44143;SDS011;43510;51.920;4.492;2022-08-21T16:26:01;6.57;;;1.00;;
44143;SDS011;43510;51.920;4.492;2022-08-21T16:28:28;13.90;;;1.90;;
44143;SDS011;43510;51.920;4.492;2022-08-21T16:30:55;8.50;;;1.25;;
44143;SDS011;43510;51.920;4.492;2022-08-21T16:33:21;5.35;;;1.40;;
44143;SDS011;43510;51.920;4.492;2022-08-21T16:35:54;4.65;;;1.20;;
44143;SDS011;43510;51.920;4.492;2022-08-21T16:38:20;7.15;;;1.20;;